Time;durP1;ratioP1;P1;durP2;ratioP2;P2;SDS_P1;SDS_P2;PMS_P1;PMS_P2;Temp;Humidity;BMP_temperature;BMP_pressure;BME280_temperature;BME280_humidity;BME280_pressure;Samples;Min_cycle;Max_cycle;Signal;HPM_P1;HPM_P2
2023/07/28 05:14:56;;;;;;;5.38;2.75;;;16.50;91.80;;;;;;4972119;28;20205;-91
2023/07/28 05:30:16;;;;;;;5.10;2.75;;;17.00;90.80;;;;;;4947340;28;20225;-91
2023/07/28 05:32:43;;;;;;;5.95;2.60;;;17.00;91.20;;;;;;4941904;29;20205;-87
2023/07/28 05:35:10;;;;;;;2.60;2.40;;;17.10;90.50;;;;;;4936107;29;20208;-91
2023/07/28 05:37:39;;;;;;;5.07;2.78;;;17.20;90.30;;;;;;4957855;28;20567;-89
2023/07/28 05:40:07;;;;;;;2.92;2.63;;;17.20;90.60;;;;;;4954948;29;20662;-91
2023/07/28 05:42:34;;;;;;;2.97;2.60;;;17.30;90.70;;;;;;4937844;28;20327;-89
2023/07/28 05:45:01;;;;;;;4.43;2.53;;;17.40;90.20;;;;;;4940787;29;20236;-91
2023/07/28 05:50:47;;;;;;;2.88;2.58;;;17.50;90.20;;;;;;4949380;28;20673;-91
2023/07/28 05:56:39;;;;;;;5.97;2.75;;;17.70;89.30;;;;;;4957937;29;20534;-87
2023/07/28 05:59:06;;;;;;;4.47;2.50;;;17.80;88.80;;;;;;4943092;29;20212;-90
2023/07/28 06:01:33;;;;;;;2.95;2.65;;;17.90;87.80;;;;;;4940593;29;20209;-91
2023/07/28 06:07:00;;;;;;;3.17;2.63;;;18.30;81.80;;;;;;4948778;28;20216;-90
2023/07/28 06:16:20;;;;;;;2.90;2.60;;;18.50;79.80;;;;;;4945399;29;20182;-90
2023/07/28 06:21:24;;;;;;;5.78;2.83;;;18.40;79.70;;;;;;5673474;23;20236;-92
2023/07/28 06:24:28;;;;;;;3.58;2.67;;;18.50;81.00;;;;;;4944538;29;20222;-91
2023/07/28 06:26:55;;;;;;;4.68;2.53;;;18.60;78.50;;;;;;4955528;28;20211;-89
2023/07/28 06:29:22;;;;;;;5.28;2.42;;;18.70;78.20;;;;;;4952669;29;20286;-89
2023/07/28 06:31:49;;;;;;;4.55;2.63;;;18.80;78.30;;;;;;4937779;29;20197;-92
2023/07/28 06:34:16;;;;;;;4.30;2.83;;;18.80;78.80;;;;;;4947832;29;20197;-89
2023/07/28 06:36:45;;;;;;;3.45;2.80;;;18.90;80.00;;;;;;4954162;28;20217;-91
2023/07/28 06:39:12;;;;;;;2.50;2.30;;;19.00;77.80;;;;;;4952801;28;20208;-90
2023/07/28 06:41:38;;;;;;;2.92;2.67;;;19.00;78.60;;;;;;4957759;28;20220;-90
2023/07/28 06:44:08;;;;;;;3.00;2.45;;;19.10;76.30;;;;;;4950925;28;20228;-91
2023/07/28 06:46:35;;;;;;;2.95;2.50;;;19.20;75.20;;;;;;4955316;28;20198;-89
2023/07/28 06:49:02;;;;;;;3.58;2.25;;;19.30;74.00;;;;;;4938542;29;20551;-90
2023/07/28 06:51:29;;;;;;;3.17;2.72;;;19.30;68.60;;;;;;4928545;28;20209;-91
2023/07/28 06:56:42;;;;;;;2.92;2.25;;;19.60;67.50;;;;;;5572724;23;20217;-92
2023/07/28 07:03:06;;;;;;;3.85;2.40;;;19.90;60.70;;;;;;4916024;29;20215;-92
2023/07/28 08:08:42;;;;;;;4.13;2.33;;;22.90;41.40;;;;;;4937540;29;20208;-90
2023/07/28 08:11:09;;;;;;;3.60;2.30;;;23.00;38.90;;;;;;4949791;28;20662;-88
2023/07/28 08:13:36;;;;;;;6.25;2.53;;;23.10;35.50;;;;;;4928380;28;20216;-91
2023/07/28 08:16:06;;;;;;;2.95;2.75;;;23.40;34.90;;;;;;4952414;28;20197;-89
2023/07/28 08:18:33;;;;;;;2.88;2.45;;;23.50;35.00;;;;;;4934435;28;20237;-88
2023/07/28 08:21:00;;;;;;;3.17;2.65;;;23.40;34.90;;;;;;4933587;29;20552;-88
2023/07/28 08:23:27;;;;;;;3.35;2.63;;;23.20;37.60;;;;;;4954625;28;20713;-89
2023/07/28 08:25:55;;;;;;;3.25;2.25;;;23.30;36.10;;;;;;4953383;28;21625;-88
2023/07/28 08:28:22;;;;;;;2.75;2.55;;;23.20;39.10;;;;;;4955522;28;20193;-88
2023/07/28 08:30:56;;;;;;;2.85;2.58;;;23.50;37.00;;;;;;4950881;28;20208;-88
2023/07/28 08:33:24;;;;;;;4.35;2.60;;;23.70;36.70;;;;;;4934520;29;20678;-88
2023/07/28 08:35:51;;;;;;;3.13;2.75;;;23.90;39.50;;;;;;4952930;28;20205;-88
2023/07/28 08:38:18;;;;;;;3.08;2.30;;;24.50;35.80;;;;;;4935648;29;20197;-88
2023/07/28 08:40:45;;;;;;;4.88;2.67;;;24.90;30.80;;;;;;4940674;28;21597;-86
2023/07/28 08:43:12;;;;;;;2.47;2.28;;;25.30;29.20;;;;;;4951583;28;20212;-87
2023/07/28 08:45:39;;;;;;;4.50;2.65;;;25.30;28.00;;;;;;4933327;28;20232;-87
2023/07/28 08:48:06;;;;;;;2.72;2.53;;;25.40;27.90;;;;;;4947779;28;20228;-87
2023/07/28 08:50:38;;;;;;;3.33;3.03;;;25.70;26.50;;;;;;4952067;28;20204;-88
2023/07/28 08:53:05;;;;;;;11.00;9.85;;;25.80;25.40;;;;;;4966860;28;20227;-89
2023/07/28 08:55:32;;;;;;;4.43;4.00;;;25.80;24.90;;;;;;4956996;28;20201;-87
2023/07/28 08:58:15;;;;;;;4.32;2.75;;;26.90;21.60;;;;;;4947952;28;20201;-90
2023/07/28 09:00:42;;;;;;;4.20;2.92;;;28.00;17.10;;;;;;4936437;28;20304;-89
2023/07/28 09:03:10;;;;;;;7.68;6.95;;;27.80;18.50;;;;;;4932354;29;20193;-89
2023/07/28 09:05:40;;;;;;;2.58;2.38;;;27.70;17.50;;;;;;4948180;28;20229;-88
2023/07/28 09:08:07;;;;;;;4.13;2.65;;;27.40;17.30;;;;;;4941783;28;20200;-88
2023/07/28 09:10:42;;;;;;;14.13;12.13;;;26.90;19.00;;;;;;4951074;28;20221;-89
2023/07/28 09:13:10;;;;;;;9.73;8.43;;;26.30;18.60;;;;;;4932107;29;20200;-87
2023/07/28 09:15:37;;;;;;;4.07;3.67;;;25.90;20.00;;;;;;4933956;28;20201;-89
2023/07/28 09:18:04;;;;;;;3.03;2.72;;;25.60;22.20;;;;;;4948603;28;20741;-89
2023/07/28 09:20:36;;;;;;;4.75;3.17;;;25.30;22.20;;;;;;4947338;28;20208;-87
2023/07/28 09:23:05;;;;;;;4.07;2.80;;;25.10;24.40;;;;;;4949205;28;20244;-88
2023/07/28 09:25:33;;;;;;;3.97;2.65;;;25.00;24.10;;;;;;4945632;28;20230;-87
2023/07/28 09:28:00;;;;;;;5.78;4.05;;;24.70;25.00;;;;;;4955235;28;20208;-87
2023/07/28 09:30:28;;;;;;;3.40;2.83;;;24.40;25.70;;;;;;4933849;29;20201;-89
2023/07/28 09:32:56;;;;;;;3.20;2.90;;;24.20;26.70;;;;;;4920427;29;20209;-87
2023/07/28 09:35:23;;;;;;;3.10;2.67;;;23.90;27.40;;;;;;4953125;28;20206;-91
2023/07/28 09:43:15;;;;;;;3.30;2.97;;;23.60;29.10;;;;;;4940383;29;20213;-91
2023/07/28 09:48:39;;;;;;;4.68;2.85;;;23.70;31.10;;;;;;4966390;28;20276;-90
2023/07/28 09:51:31;;;;;;;3.00;2.72;;;23.60;31.20;;;;;;4961501;28;20273;-89
2023/07/28 09:59:36;;;;;;;4.78;2.60;;;23.60;31.40;;;;;;4961524;29;20205;-91
2023/07/28 10:04:45;;;;;;;5.03;2.80;;;23.90;29.90;;;;;;4966947;28;20249;-90
2023/07/28 10:09:53;;;;;;;2.80;2.60;;;24.10;29.50;;;;;;4953308;28;20186;-88
2023/07/28 10:12:34;;;;;;;4.22;2.90;;;24.30;27.70;;;;;;4939642;28;20193;-91
2023/07/28 10:18:08;;;;;;;3.63;2.67;;;24.70;26.40;;;;;;4979275;28;20221;-89
2023/07/28 10:20:49;;;;;;;4.60;2.80;;;24.90;24.70;;;;;;4962060;29;20197;-88
2023/07/28 10:23:31;;;;;;;3.15;2.85;;;24.90;25.50;;;;;;4974205;28;20206;-89
2023/07/28 10:25:59;;;;;;;2.80;2.50;;;24.80;24.60;;;;;;4958671;28;20240;-91
2023/07/28 10:31:56;;;;;;;3.25;2.97;;;24.60;25.90;;;;;;4961118;28;20212;-90
2023/07/28 10:34:24;;;;;;;4.00;3.60;;;24.60;25.20;;;;;;4973315;29;20201;-89
2023/07/28 10:36:58;;;;;;;3.25;2.50;;;24.60;26.10;;;;;;4959709;28;20733;-87
2023/07/28 10:39:25;;;;;;;5.30;3.20;;;24.50;25.90;;;;;;4972516;29;20213;-90
2023/07/28 10:42:04;;;;;;;3.15;2.80;;;24.30;23.90;;;;;;4972173;29;20204;-89
2023/07/28 10:44:35;;;;;;;3.03;2.72;;;24.20;26.20;;;;;;4958444;28;20665;-88
2023/07/28 10:47:02;;;;;;;4.07;3.00;;;24.00;26.80;;;;;;4960279;29;20206;-89
2023/07/28 10:49:29;;;;;;;5.30;3.05;;;24.00;26.30;;;;;;4964410;29;20213;-88
2023/07/28 10:51:56;;;;;;;3.95;2.85;;;24.00;26.40;;;;;;4952774;29;20212;-90
2023/07/28 10:54:25;;;;;;;5.18;3.53;;;24.00;27.80;;;;;;4944221;29;20207;-88
2023/07/28 11:13:35;;;;;;;3.80;2.72;;;24.20;27.00;;;;;;4808602;29;20720;-91
2023/07/28 11:21:30;;;;;;;4.05;2.70;;;24.30;26.30;;;;;;4871559;29;20213;-89
2023/07/28 11:32:47;;;;;;;4.68;2.90;;;24.70;25.20;;;;;;4927923;29;20181;-89
2023/07/28 11:41:16;;;;;;;3.80;3.42;;;24.70;24.20;;;;;;4909634;29;20211;-91
2023/07/28 12:38:14;;;;;;;2.88;2.58;;;26.10;19.50;;;;;;4898405;29;20236;-88
2023/07/28 12:40:42;;;;;;;3.50;2.92;;;26.00;19.80;;;;;;4914226;29;20270;-91
2023/07/28 12:52:49;;;;;;;2.70;2.50;;;25.50;20.50;;;;;;4913049;29;20186;-92
2023/07/28 13:03:44;;;;;;;3.47;2.50;;;26.70;17.60;;;;;;4931264;29;20197;-90
2023/07/28 13:06:27;;;;;;;2.97;2.35;;;26.50;18.50;;;;;;4973393;29;20220;-88
2023/07/28 13:08:54;;;;;;;3.40;3.10;;;26.30;18.80;;;;;;4957814;29;20274;-88
2023/07/28 13:46:40;;;;;;;2.90;2.70;;;25.50;20.60;;;;;;4959154;29;20278;-91
2023/07/28 13:56:16;;;;;;;4.53;2.75;;;25.50;19.80;;;;;;4937203;29;20175;-89
2023/07/28 14:12:24;;;;;;;4.00;2.67;;;24.90;19.50;;;;;;4958135;29;20288;-90
2023/07/28 14:21:04;;;;;;;6.35;4.78;;;24.30;23.20;;;;;;4968274;29;20233;-92
2023/07/28 14:26:42;;;;;;;4.20;2.80;;;22.90;36.90;;;;;;4957813;29;20237;-91
2023/07/28 14:32:00;;;;;;;5.55;3.15;;;21.50;62.20;;;;;;4957161;29;20209;-92
2023/07/28 14:37:31;;;;;;;4.28;3.30;;;20.80;82.80;;;;;;4939390;29;20210;-91
2023/07/28 14:42:39;;;;;;;3.65;3.17;;;20.60;89.50;;;;;;4948485;28;20186;-94
2023/07/28 14:45:22;;;;;;;4.03;3.10;;;20.80;90.50;;;;;;4977524;29;20201;-90
2023/07/28 15:09:06;;;;;;;3.60;3.30;;;22.90;79.50;;;;;;5704901;23;20224;-93
2023/07/28 15:11:34;;;;;;;4.65;3.25;;;23.40;76.80;;;;;;4975383;28;20208;-87
2023/07/28 15:14:00;;;;;;;3.83;3.25;;;23.60;64.60;;;;;;4961518;28;20204;-92
2023/07/28 15:16:27;;;;;;;4.07;3.40;;;23.80;69.00;;;;;;4978124;28;20215;-90
2023/07/28 15:18:55;;;;;;;4.95;3.50;;;23.90;64.00;;;;;;4962552;28;20225;-91
2023/07/28 15:24:04;;;;;;;4.45;3.08;;;23.90;63.60;;;;;;4979756;28;20209;-92
2023/07/28 15:26:32;;;;;;;4.13;3.38;;;23.80;52.80;;;;;;4983817;28;20239;-89
2023/07/28 15:29:00;;;;;;;4.38;3.10;;;23.70;54.70;;;;;;4984129;28;20208;-92
2023/07/28 15:31:27;;;;;;;3.28;2.97;;;23.40;59.00;;;;;;4954628;28;20212;-91
2023/07/28 15:33:54;;;;;;;3.25;2.80;;;23.50;57.30;;;;;;4983016;28;20212;-89
2023/07/28 15:36:23;;;;;;;4.07;2.88;;;23.60;51.90;;;;;;4957886;29;20189;-90
2023/07/28 15:38:50;;;;;;;4.95;2.80;;;23.50;54.50;;;;;;4958488;28;20233;-90
2023/07/28 15:41:19;;;;;;;4.80;3.00;;;23.40;50.60;;;;;;4984021;28;20215;-88
2023/07/28 15:43:45;;;;;;;3.80;3.20;;;23.30;51.20;;;;;;4980446;28;20204;-91
2023/07/28 15:46:12;;;;;;;3.67;2.97;;;23.20;51.80;;;;;;4978167;29;20225;-91
2023/07/28 15:48:39;;;;;;;3.70;3.15;;;23.00;51.10;;;;;;4962758;29;20620;-89
2023/07/28 15:51:06;;;;;;;3.70;2.90;;;23.00;51.80;;;;;;4969661;28;20236;-89
2023/07/28 15:53:35;;;;;;;5.00;2.72;;;23.00;51.10;;;;;;4986463;28;20198;-89
2023/07/28 15:56:29;;;;;;;4.72;2.90;;;23.10;50.20;;;;;;4975710;28;20213;-90
2023/07/28 15:58:56;;;;;;;4.32;3.70;;;23.10;52.40;;;;;;4983204;28;20633;-89
2023/07/28 16:01:23;;;;;;;9.95;3.78;;;23.10;53.20;;;;;;4992767;28;20209;-91
2023/07/28 16:03:55;;;;;;;3.65;3.30;;;22.90;54.90;;;;;;4982834;28;20188;-90
2023/07/28 16:06:43;;;;;;;4.75;3.38;;;22.70;54.80;;;;;;4994253;28;20308;-91
2023/07/28 16:11:54;;;;;;;5.00;3.30;;;22.50;58.70;;;;;;4960771;28;20240;-89
2023/07/28 16:14:21;;;;;;;3.63;3.17;;;22.50;58.20;;;;;;4982722;28;20203;-86
2023/07/28 16:16:49;;;;;;;3.60;2.97;;;22.60;58.30;;;;;;4978973;28;20205;-88
2023/07/28 16:19:18;;;;;;;4.90;3.20;;;22.70;58.40;;;;;;5258785;23;20253;-91
2023/07/28 16:24:18;;;;;;;5.07;3.25;;;22.90;58.50;;;;;;4978564;28;20241;-92
2023/07/28 16:29:20;;;;;;;5.18;3.20;;;23.00;58.70;;;;;;5027035;23;20309;-92
2023/07/28 16:36:57;;;;;;;3.58;3.05;;;22.70;58.40;;;;;;5641014;23;20247;-92
2023/07/28 16:39:28;;;;;;;5.13;3.10;;;22.60;58.30;;;;;;4971671;28;20262;-92
2023/07/28 16:41:57;;;;;;;5.95;2.88;;;22.60;59.40;;;;;;4955789;28;20202;-92
2023/07/28 16:44:25;;;;;;;5.18;3.33;;;22.60;58.30;;;;;;4950639;29;20206;-90
2023/07/28 16:46:55;;;;;;;3.97;3.42;;;22.70;58.40;;;;;;4958576;28;20225;-91
2023/07/28 16:49:22;;;;;;;3.20;2.90;;;22.70;58.10;;;;;;4969394;28;20288;-90
2023/07/28 16:51:49;;;;;;;3.83;3.42;;;22.80;57.10;;;;;;4954950;28;20225;-90
2023/07/28 16:54:16;;;;;;;3.00;2.80;;;22.70;56.60;;;;;;4955254;28;20312;-92
2023/07/28 16:59:46;;;;;;;3.70;3.40;;;22.70;55.80;;;;;;4971778;28;20197;-92
2023/07/28 17:02:13;;;;;;;3.63;3.33;;;22.70;56.50;;;;;;4954976;29;20303;-91
2023/07/28 17:04:40;;;;;;;4.82;3.20;;;22.60;57.10;;;;;;4971160;28;20217;-90
2023/07/28 17:07:06;;;;;;;46.72;42.20;;;22.50;58.20;;;;;;4969468;28;20217;-91
2023/07/28 17:09:33;;;;;;;54.40;48.88;;;22.40;58.10;;;;;;4956738;28;20206;-92
2023/07/28 17:17:45;;;;;;;5.68;3.58;;;21.90;62.90;;;;;;4969496;28;20227;-92
2023/07/28 17:22:53;;;;;;;5.03;3.72;;;21.80;67.50;;;;;;4984561;28;20271;-91
2023/07/28 17:25:29;;;;;;;6.13;4.97;;;21.80;67.80;;;;;;4984204;28;20496;-91
2023/07/28 17:27:57;;;;;;;5.57;3.95;;;21.80;68.40;;;;;;4975857;28;20200;-91
2023/07/28 17:30:26;;;;;;;6.50;5.90;;;21.80;69.60;;;;;;4988980;28;20929;-92
2023/07/28 17:32:53;;;;;;;4.25;3.70;;;21.80;70.20;;;;;;4982267;28;20292;-91
2023/07/28 17:35:20;;;;;;;7.82;4.75;;;21.70;70.10;;;;;;4976789;28;20252;-91
2023/07/28 17:37:46;;;;;;;4.05;3.65;;;21.70;69.60;;;;;;4976494;28;20235;-92
2023/07/28 17:40:14;;;;;;;3.95;3.40;;;21.70;70.50;;;;;;4963612;28;20185;-91
2023/07/28 17:42:40;;;;;;;3.53;3.20;;;21.60;68.40;;;;;;4973426;28;20269;-92
2023/07/28 17:45:08;;;;;;;4.45;3.85;;;21.60;69.30;;;;;;5151927;23;20266;-89
2023/07/28 17:53:34;;;;;;;8.57;7.22;;;21.40;70.30;;;;;;4950280;28;20208;-92
2023/07/28 17:56:01;;;;;;;17.77;15.93;;;21.50;70.30;;;;;;4972270;28;20277;-93
2023/07/28 17:58:27;;;;;;;5.53;4.43;;;21.50;70.40;;;;;;4993934;28;20216;-93
2023/07/28 18:06:18;;;;;;;4.40;3.80;;;21.30;75.90;;;;;;4988140;28;20220;-93
2023/07/28 18:08:44;;;;;;;8.07;6.57;;;21.10;77.30;;;;;;4989091;28;20207;-93
2023/07/28 18:11:11;;;;;;;6.60;4.40;;;21.00;81.50;;;;;;4989305;28;20204;-94
2023/07/28 18:16:19;;;;;;;6.20;4.03;;;20.80;87.90;;;;;;4980599;28;20208;-91
2023/07/28 18:18:48;;;;;;;8.23;4.55;;;20.70;90.10;;;;;;4985509;28;20224;-93
2023/07/28 18:21:16;;;;;;;9.85;7.70;;;20.60;90.90;;;;;;4918046;29;20202;-88
2023/07/28 18:23:43;;;;;;;5.53;4.43;;;20.60;91.40;;;;;;4974909;28;20201;-92
2023/07/28 18:26:09;;;;;;;9.80;5.47;;;20.60;92.20;;;;;;4952473;29;20217;-91
2023/07/28 18:31:12;;;;;;;40.10;36.22;;;20.50;94.90;;;;;;5406691;23;20258;-91
2023/07/28 18:33:39;;;;;;;53.40;48.03;;;20.20;95.70;;;;;;4938578;29;20210;-94
2023/07/28 18:36:07;;;;;;;113.85;103.20;;;19.90;96.70;;;;;;4967923;28;20296;-92
2023/07/28 18:38:34;;;;;;;68.80;62.25;;;19.70;97.80;;;;;;4958043;28;20213;-93
2023/07/28 18:41:01;;;;;;;45.15;40.75;;;19.50;98.70;;;;;;4964314;28;20205;-92
2023/07/28 18:43:28;;;;;;;31.77;28.60;;;19.40;99.60;;;;;;4941138;29;20205;-91
2023/07/28 18:45:55;;;;;;;9.95;8.65;;;19.30;99.90;;;;;;4955782;28;20201;-93
2023/07/28 18:48:21;;;;;;;69.32;62.75;;;19.30;99.90;;;;;;4959444;29;20197;-92
2023/07/28 18:50:49;;;;;;;67.63;61.00;;;19.20;99.90;;;;;;4949868;28;20206;-91
2023/07/28 18:53:18;;;;;;;11.90;8.85;;;19.10;99.90;;;;;;4947327;28;20209;-92
2023/07/28 18:55:45;;;;;;;81.90;73.65;;;19.20;99.90;;;;;;4943345;28;20201;-93
2023/07/28 18:58:11;;;;;;;50.05;44.97;;;19.20;99.90;;;;;;4945882;29;20213;-93
2023/07/28 19:00:38;;;;;;;48.30;43.58;;;19.20;99.90;;;;;;4942623;29;20212;-93
2023/07/28 19:03:06;;;;;;;53.85;48.42;;;19.10;99.90;;;;;;4939593;29;20236;-92
2023/07/28 19:05:33;;;;;;;56.78;51.25;;;19.10;99.90;;;;;;4960204;29;20234;-92
2023/07/28 19:08:00;;;;;;;48.47;43.45;;;19.10;99.90;;;;;;4922058;29;20229;-93
2023/07/28 19:10:28;;;;;;;51.83;46.70;;;19.10;99.90;;;;;;4957228;29;20205;-92
2023/07/28 19:12:55;;;;;;;53.28;47.80;;;19.00;99.90;;;;;;4958522;29;20221;-93
2023/07/28 19:15:22;;;;;;;38.90;34.83;;;19.10;99.90;;;;;;4947150;29;20212;-93
2023/07/28 19:17:49;;;;;;;27.00;24.08;;;19.10;99.90;;;;;;4930087;28;20227;-92
2023/07/28 19:20:19;;;;;;;16.63;13.10;;;19.10;99.90;;;;;;4975177;28;20205;-93
2023/07/28 19:22:46;;;;;;;12.82;10.68;;;19.10;99.90;;;;;;4977035;28;20209;-92
2023/07/28 19:25:14;;;;;;;17.48;13.55;;;19.10;99.90;;;;;;4959360;28;20268;-94
2023/07/28 19:27:42;;;;;;;10.15;7.38;;;19.20;99.90;;;;;;4957819;29;20702;-92
2023/07/28 19:30:10;;;;;;;10.07;7.55;;;19.00;99.90;;;;;;4976405;28;20204;-93
2023/07/28 19:32:37;;;;;;;9.70;8.45;;;18.90;99.90;;;;;;4975993;28;20224;-93
2023/07/28 19:35:04;;;;;;;21.95;18.65;;;18.80;99.90;;;;;;4980877;28;20293;-94
2023/07/28 19:37:31;;;;;;;10.68;6.45;;;18.70;99.90;;;;;;4964847;28;20231;-93
2023/07/28 19:39:58;;;;;;;8.25;5.68;;;18.70;99.90;;;;;;4978091;28;20212;-93
2023/07/28 19:42:25;;;;;;;9.40;5.93;;;18.60;99.90;;;;;;4977228;28;20211;-94
2023/07/28 19:44:55;;;;;;;7.88;6.03;;;18.60;99.90;;;;;;4970938;28;20300;-93
2023/07/28 19:47:22;;;;;;;7.47;6.07;;;18.60;99.90;;;;;;4973881;28;20280;-93
2023/07/28 19:49:49;;;;;;;9.45;6.03;;;18.60;99.90;;;;;;4947963;28;20671;-94
2023/07/28 19:52:16;;;;;;;8.85;5.55;;;18.60;99.90;;;;;;4964517;28;20204;-93
2023/07/28 19:54:43;;;;;;;6.80;5.68;;;18.50;99.90;;;;;;4979266;28;20213;-96
2023/07/28 19:57:10;;;;;;;10.73;6.15;;;18.50;99.90;;;;;;4980368;28;20200;-94
2023/07/28 19:59:37;;;;;;;10.55;6.13;;;18.60;99.90;;;;;;4960243;28;20421;-93
2023/07/28 20:02:06;;;;;;;6.63;5.50;;;18.60;99.90;;;;;;4979020;28;20208;-93
2023/07/28 20:04:38;;;;;;;7.43;5.43;;;18.50;99.90;;;;;;4956462;28;20205;-94
2023/07/28 20:07:07;;;;;;;9.27;5.10;;;18.50;99.90;;;;;;4963698;28;20236;-93
2023/07/28 20:09:34;;;;;;;5.20;4.70;;;18.60;99.90;;;;;;4939571;28;20207;-93
2023/07/28 20:12:01;;;;;;;5.47;4.47;;;18.60;99.90;;;;;;4967257;28;20205;-91
2023/07/28 20:14:28;;;;;;;6.45;4.63;;;18.50;99.90;;;;;;4978855;28;20216;-93
2023/07/28 20:16:55;;;;;;;8.30;5.18;;;18.50;99.90;;;;;;4980044;28;20217;-93
2023/07/28 20:19:24;;;;;;;7.75;5.20;;;18.40;99.90;;;;;;4962415;28;20569;-93
2023/07/28 20:21:51;;;;;;;6.07;4.57;;;18.30;99.90;;;;;;4978797;28;20224;-93
2023/07/28 20:24:18;;;;;;;6.95;5.22;;;18.30;99.90;;;;;;4968752;28;20208;-94
2023/07/28 20:26:45;;;;;;;5.63;4.45;;;18.30;99.90;;;;;;4982027;28;20213;-94
2023/07/28 20:29:11;;;;;;;7.55;4.97;;;18.30;99.90;;;;;;4979570;28;20218;-94
2023/07/28 20:31:38;;;;;;;6.45;4.40;;;18.30;99.90;;;;;;4973233;28;20220;-92
2023/07/28 20:34:05;;;;;;;8.00;4.80;;;18.30;99.90;;;;;;4963504;29;20217;-95
2023/07/28 20:36:34;;;;;;;6.22;4.90;;;18.30;99.90;;;;;;4972413;28;20207;-93
2023/07/28 20:39:02;;;;;;;5.88;4.20;;;18.30;99.90;;;;;;4967010;28;20295;-94
2023/07/28 20:41:36;;;;;;;4.35;3.95;;;18.20;99.90;;;;;;4971142;28;20238;-93
2023/07/28 20:44:03;;;;;;;4.53;3.90;;;18.20;99.90;;;;;;4979017;28;20217;-92
2023/07/28 20:46:30;;;;;;;6.47;4.00;;;18.20;99.90;;;;;;4976350;28;20267;-94
2023/07/28 20:48:57;;;;;;;4.03;3.63;;;18.10;99.90;;;;;;4979025;28;20201;-93
2023/07/28 20:51:24;;;;;;;4.45;4.05;;;18.10;99.90;;;;;;4964426;28;20213;-92
2023/07/28 20:53:52;;;;;;;3.90;3.50;;;18.10;99.90;;;;;;4965359;28;20206;-94
2023/07/28 20:56:19;;;;;;;5.13;3.83;;;18.00;99.90;;;;;;4963516;29;20205;-94
2023/07/28 20:58:46;;;;;;;4.63;3.33;;;18.00;99.90;;;;;;4982943;28;20205;-93
2023/07/28 21:01:13;;;;;;;3.72;3.20;;;18.10;99.90;;;;;;4983248;28;20569;-93
2023/07/28 21:03:40;;;;;;;3.97;3.33;;;18.00;99.90;;;;;;4968279;28;20196;-93
2023/07/28 21:06:07;;;;;;;3.50;3.20;;;18.00;99.90;;;;;;4978555;28;20583;-94
2023/07/28 21:08:34;;;;;;;3.85;3.35;;;17.90;99.90;;;;;;4966461;28;20221;-93
2023/07/28 21:11:02;;;;;;;3.45;3.15;;;17.90;99.90;;;;;;4983132;28;20573;-93
2023/07/28 21:13:29;;;;;;;3.67;3.00;;;17.90;99.90;;;;;;4977166;28;20208;-94
2023/07/28 21:15:56;;;;;;;5.75;3.10;;;17.80;99.90;;;;;;4978445;28;20205;-93
2023/07/28 21:21:03;;;;;;;3.88;3.50;;;17.70;99.90;;;;;;4979260;28;20232;-94
2023/07/28 21:23:30;;;;;;;3.33;2.90;;;17.70;99.90;;;;;;4977271;28;20201;-93
2023/07/28 21:26:20;;;;;;;3.55;2.85;;;17.70;99.90;;;;;;4983268;28;20201;-94
2023/07/28 21:28:51;;;;;;;4.38;3.17;;;17.60;99.90;;;;;;4967445;28;20286;-93
2023/07/28 21:31:19;;;;;;;3.50;3.15;;;17.60;99.90;;;;;;4959516;28;20242;-93
2023/07/28 21:33:46;;;;;;;6.07;3.22;;;17.50;99.90;;;;;;4977061;28;20233;-92
2023/07/28 21:36:13;;;;;;;4.03;3.03;;;17.50;99.90;;;;;;4970617;28;20200;-93
2023/07/28 21:38:40;;;;;;;3.40;2.95;;;17.40;99.90;;;;;;4979842;28;20205;-93
2023/07/28 21:41:07;;;;;;;3.40;3.10;;;17.40;99.90;;;;;;4939486;28;20201;-95
2023/07/28 21:43:39;;;;;;;3.65;3.35;;;17.30;99.90;;;;;;4934416;28;20304;-92
2023/07/28 21:46:06;;;;;;;6.03;3.72;;;17.30;99.90;;;;;;4980038;28;20238;-92
2023/07/28 21:48:33;;;;;;;4.95;3.20;;;17.30;99.90;;;;;;4968006;28;20227;-95
2023/07/28 21:51:01;;;;;;;4.57;3.22;;;17.30;99.90;;;;;;4973799;28;20300;-93
2023/07/28 21:53:28;;;;;;;3.95;3.40;;;17.30;99.90;;;;;;4961519;28;20228;-93
2023/07/28 21:55:55;;;;;;;4.45;3.10;;;17.30;99.90;;;;;;4979245;28;20735;-93
2023/07/28 21:58:23;;;;;;;5.05;3.45;;;17.30;99.90;;;;;;4950689;28;20201;-92
2023/07/28 22:00:52;;;;;;;5.07;3.42;;;17.30;99.90;;;;;;4984150;28;20209;-94
2023/07/28 22:03:19;;;;;;;4.10;3.45;;;17.30;99.90;;;;;;4963480;28;20208;-92
2023/07/28 22:05:46;;;;;;;4.53;3.10;;;17.30;99.90;;;;;;4960023;28;20204;-94
2023/07/28 22:08:14;;;;;;;4.57;2.90;;;17.10;99.90;;;;;;4975175;28;20631;-94
2023/07/28 22:13:22;;;;;;;3.65;3.35;;;17.00;99.90;;;;;;4969618;28;20199;-94
2023/07/28 22:15:48;;;;;;;5.43;3.15;;;17.00;99.90;;;;;;4969082;28;20207;-94
2023/07/28 22:18:17;;;;;;;3.25;2.95;;;16.90;99.90;;;;;;4972627;28;20247;-93
2023/07/28 22:20:52;;;;;;;4.00;3.60;;;16.90;99.90;;;;;;4972053;28;20201;-93
2023/07/28 22:23:19;;;;;;;3.47;2.97;;;16.80;99.90;;;;;;4953144;29;20236;-94
2023/07/28 22:25:53;;;;;;;3.45;3.13;;;16.80;99.90;;;;;;4985246;28;20201;-93
2023/07/28 22:28:26;;;;;;;3.38;3.08;;;16.70;99.90;;;;;;4978455;28;20240;-93
2023/07/28 22:30:54;;;;;;;5.47;3.55;;;16.70;99.90;;;;;;4980231;28;20570;-93
2023/07/28 22:33:23;;;;;;;3.20;2.90;;;16.70;99.90;;;;;;4977916;28;20225;-94
2023/07/28 22:35:50;;;;;;;5.47;3.40;;;16.60;99.90;;;;;;4974723;28;20209;-93
2023/07/28 22:38:17;;;;;;;4.35;3.58;;;16.60;99.90;;;;;;4987020;28;20198;-93
2023/07/28 22:40:44;;;;;;;3.35;3.05;;;16.60;99.90;;;;;;4953892;28;20239;-93
2023/07/28 22:43:11;;;;;;;3.35;3.05;;;16.60;99.90;;;;;;4968890;28;20252;-94
2023/07/28 22:45:40;;;;;;;3.70;2.90;;;16.60;99.90;;;;;;4983461;28;20205;-94
2023/07/28 22:48:07;;;;;;;3.65;2.97;;;16.60;99.90;;;;;;4991017;28;20240;-93
2023/07/28 22:50:35;;;;;;;3.70;3.40;;;16.60;99.90;;;;;;4987974;28;20209;-94
2023/07/28 22:53:02;;;;;;;3.28;2.97;;;16.60;99.90;;;;;;4988667;28;20562;-93
2023/07/28 22:55:29;;;;;;;5.22;3.05;;;16.60;99.90;;;;;;4977195;28;20212;-94
2023/07/28 22:57:56;;;;;;;6.80;3.47;;;16.50;99.90;;;;;;4967985;28;20220;-93
2023/07/28 23:00:23;;;;;;;3.88;3.22;;;16.50;99.90;;;;;;4985494;28;20200;-93
2023/07/28 23:02:51;;;;;;;3.75;3.33;;;16.60;99.90;;;;;;4967704;28;20212;-93
2023/07/28 23:05:18;;;;;;;3.97;3.20;;;16.60;99.90;;;;;;4949201;28;20208;-93
2023/07/28 23:07:47;;;;;;;3.97;3.45;;;16.60;99.90;;;;;;4981529;28;20229;-93
2023/07/28 23:10:18;;;;;;;5.00;3.85;;;16.50;99.90;;;;;;4990307;28;20217;-92
2023/07/28 23:12:45;;;;;;;4.72;3.50;;;16.40;99.90;;;;;;4986560;28;20208;-93
2023/07/28 23:15:12;;;;;;;4.15;3.13;;;16.40;99.90;;;;;;4957805;28;20234;-93
2023/07/28 23:17:39;;;;;;;4.53;3.78;;;16.40;99.90;;;;;;4974001;28;20223;-93
2023/07/28 23:20:10;;;;;;;4.00;3.55;;;16.40;99.90;;;;;;4975810;28;20203;-93
2023/07/28 23:22:39;;;;;;;3.83;3.00;;;16.30;99.90;;;;;;4991237;28;20205;-94
2023/07/28 23:25:14;;;;;;;3.63;3.30;;;16.40;99.90;;;;;;4989514;28;20209;-93
2023/07/28 23:27:41;;;;;;;5.10;3.47;;;16.30;99.90;;;;;;4990758;28;20204;-92
2023/07/28 23:30:09;;;;;;;6.47;3.50;;;16.30;99.90;;;;;;4986477;28;20300;-92
2023/07/28 23:32:37;;;;;;;3.45;3.13;;;16.30;99.90;;;;;;4976167;28;20211;-92
2023/07/28 23:35:05;;;;;;;4.00;3.35;;;16.30;99.90;;;;;;4966332;28;20215;-95
2023/07/28 23:37:32;;;;;;;4.10;3.60;;;16.20;99.90;;;;;;4983716;28;20275;-93
2023/07/28 23:39:59;;;;;;;4.30;3.90;;;16.20;99.90;;;;;;4988526;28;20205;-93
2023/07/28 23:42:27;;;;;;;4.78;3.70;;;16.20;99.90;;;;;;4986067;28;20481;-93
2023/07/28 23:44:54;;;;;;;4.40;3.70;;;16.20;99.90;;;;;;4982467;28;20205;-92
2023/07/28 23:47:21;;;;;;;5.03;4.40;;;16.20;99.90;;;;;;4967848;28;20199;-92
2023/07/28 23:49:48;;;;;;;4.50;3.67;;;16.20;99.90;;;;;;4986327;28;20207;-92
2023/07/28 23:52:14;;;;;;;5.20;3.92;;;16.20;99.90;;;;;;4969869;28;20205;-95
2023/07/28 23:54:41;;;;;;;5.50;3.75;;;16.20;99.90;;;;;;4964649;28;20201;-92
2023/07/28 23:57:08;;;;;;;5.97;4.85;;;16.30;99.90;;;;;;4986702;28;20196;-93
2023/07/28 23:59:37;;;;;;;7.32;5.70;;;16.30;99.90;;;;;;4982486;28;20208;-92
